sensor_id;sensor_type;location;lat;lon;timestamp;P1;durP1;ratioP1;P2;durP2;ratioP2
83747;SDS011;73737;52.364;17.120;2024-01-15T00:00:36;20.40;;;12.90;;
83747;SDS011;73737;52.364;17.120;2024-01-15T00:03:46;20.80;;;11.90;;
83747;SDS011;73737;52.364;17.120;2024-01-15T00:06:16;22.80;;;12.90;;
83747;SDS011;73737;52.364;17.120;2024-01-15T00:08:47;22.50;;;12.40;;
83747;SDS011;73737;52.364;17.120;2024-01-15T00:11:16;20.30;;;12.00;;
83747;SDS011;73737;52.364;17.120;2024-01-15T00:13:45;22.80;;;12.60;;
83747;SDS011;73737;52.364;17.120;2024-01-15T00:16:15;20.10;;;11.70;;
83747;SDS011;73737;52.364;17.120;2024-01-15T00:18:44;23.30;;;12.20;;
83747;SDS011;73737;52.364;17.120;2024-01-15T00:21:14;21.50;;;12.60;;
83747;SDS011;73737;52.364;17.120;2024-01-15T00:23:44;22.90;;;12.90;;
83747;SDS011;73737;52.364;17.120;2024-01-15T00:26:13;20.60;;;12.00;;
83747;SDS011;73737;52.364;17.120;2024-01-15T00:28:47;21.80;;;12.50;;
83747;SDS011;73737;52.364;17.120;2024-01-15T00:31:16;24.30;;;12.40;;
83747;SDS011;73737;52.364;17.120;2024-01-15T00:33:52;21.60;;;12.40;;
83747;SDS011;73737;52.364;17.120;2024-01-15T00:36:21;22.50;;;12.40;;
83747;SDS011;73737;52.364;17.120;2024-01-15T00:38:51;22.40;;;12.40;;
83747;SDS011;73737;52.364;17.120;2024-01-15T00:41:20;25.30;;;13.00;;
83747;SDS011;73737;52.364;17.120;2024-01-15T00:43:53;21.50;;;12.60;;
83747;SDS011;73737;52.364;17.120;2024-01-15T00:46:21;23.30;;;12.30;;
83747;SDS011;73737;52.364;17.120;2024-01-15T00:48:50;23.80;;;13.00;;
83747;SDS011;73737;52.364;17.120;2024-01-15T00:51:18;27.60;;;14.00;;
83747;SDS011;73737;52.364;17.120;2024-01-15T00:53:47;25.50;;;12.60;;
83747;SDS011;73737;52.364;17.120;2024-01-15T00:56:15;26.00;;;14.10;;
83747;SDS011;73737;52.364;17.120;2024-01-15T00:58:43;27.60;;;14.30;;
83747;SDS011;73737;52.364;17.120;2024-01-15T01:01:11;25.50;;;14.80;;
83747;SDS011;73737;52.364;17.120;2024-01-15T01:03:40;28.60;;;14.60;;
83747;SDS011;73737;52.364;17.120;2024-01-15T01:06:08;27.30;;;14.00;;
83747;SDS011;73737;52.364;17.120;2024-01-15T01:08:36;29.40;;;15.90;;
83747;SDS011;73737;52.364;17.120;2024-01-15T01:11:05;30.00;;;15.90;;
83747;SDS011;73737;52.364;17.120;2024-01-15T01:13:35;31.80;;;15.30;;
83747;SDS011;73737;52.364;17.120;2024-01-15T01:16:03;26.90;;;15.20;;
83747;SDS011;73737;52.364;17.120;2024-01-15T01:18:31;27.30;;;15.50;;
83747;SDS011;73737;52.364;17.120;2024-01-15T01:21:00;30.00;;;15.00;;
83747;SDS011;73737;52.364;17.120;2024-01-15T01:23:28;27.00;;;14.20;;
83747;SDS011;73737;52.364;17.120;2024-01-15T01:25:57;27.00;;;14.40;;
83747;SDS011;73737;52.364;17.120;2024-01-15T01:28:25;24.30;;;13.40;;
83747;SDS011;73737;52.364;17.120;2024-01-15T01:30:54;22.70;;;13.80;;
83747;SDS011;73737;52.364;17.120;2024-01-15T01:33:22;23.50;;;13.30;;
83747;SDS011;73737;52.364;17.120;2024-01-15T01:35:50;17.80;;;10.70;;
83747;SDS011;73737;52.364;17.120;2024-01-15T01:38:19;17.00;;;10.10;;
83747;SDS011;73737;52.364;17.120;2024-01-15T01:40:47;16.50;;;10.00;;
83747;SDS011;73737;52.364;17.120;2024-01-15T01:43:15;18.50;;;11.30;;
83747;SDS011;73737;52.364;17.120;2024-01-15T01:45:43;20.10;;;11.70;;
83747;SDS011;73737;52.364;17.120;2024-01-15T01:48:12;18.10;;;11.40;;
83747;SDS011;73737;52.364;17.120;2024-01-15T01:50:40;20.80;;;13.10;;
83747;SDS011;73737;52.364;17.120;2024-01-15T01:53:08;21.90;;;12.50;;
83747;SDS011;73737;52.364;17.120;2024-01-15T01:55:38;21.70;;;13.90;;
83747;SDS011;73737;52.364;17.120;2024-01-15T01:58:06;24.50;;;13.20;;
83747;SDS011;73737;52.364;17.120;2024-01-15T02:00:35;23.90;;;13.50;;
83747;SDS011;73737;52.364;17.120;2024-01-15T02:03:04;21.40;;;12.60;;
83747;SDS011;73737;52.364;17.120;2024-01-15T02:05:32;24.80;;;13.50;;
83747;SDS011;73737;52.364;17.120;2024-01-15T02:08:01;25.20;;;13.20;;
83747;SDS011;73737;52.364;17.120;2024-01-15T02:10:30;21.50;;;12.60;;
83747;SDS011;73737;52.364;17.120;2024-01-15T02:12:58;26.50;;;14.20;;
83747;SDS011;73737;52.364;17.120;2024-01-15T02:15:26;24.90;;;13.30;;
83747;SDS011;73737;52.364;17.120;2024-01-15T02:20:31;25.90;;;13.30;;
83747;SDS011;73737;52.364;17.120;2024-01-15T02:23:13;24.20;;;12.20;;
83747;SDS011;73737;52.364;17.120;2024-01-15T02:25:43;22.40;;;12.90;;
83747;SDS011;73737;52.364;17.120;2024-01-15T02:28:15;26.60;;;13.90;;
83747;SDS011;73737;52.364;17.120;2024-01-15T02:30:46;27.30;;;13.70;;
83747;SDS011;73737;52.364;17.120;2024-01-15T02:33:14;23.90;;;13.60;;
83747;SDS011;73737;52.364;17.120;2024-01-15T02:35:42;22.20;;;13.70;;
83747;SDS011;73737;52.364;17.120;2024-01-15T02:38:10;23.50;;;12.70;;
83747;SDS011;73737;52.364;17.120;2024-01-15T02:40:39;23.40;;;12.70;;
83747;SDS011;73737;52.364;17.120;2024-01-15T02:43:07;22.70;;;11.30;;
83747;SDS011;73737;52.364;17.120;2024-01-15T02:45:36;25.40;;;13.70;;
83747;SDS011;73737;52.364;17.120;2024-01-15T02:48:04;22.20;;;12.90;;
83747;SDS011;73737;52.364;17.120;2024-01-15T02:50:33;24.70;;;13.10;;
83747;SDS011;73737;52.364;17.120;2024-01-15T02:53:01;25.30;;;13.30;;
83747;SDS011;73737;52.364;17.120;2024-01-15T02:55:29;22.30;;;12.60;;
83747;SDS011;73737;52.364;17.120;2024-01-15T02:57:59;26.60;;;14.00;;
83747;SDS011;73737;52.364;17.120;2024-01-15T03:00:27;21.50;;;11.60;;
83747;SDS011;73737;52.364;17.120;2024-01-15T03:02:56;23.80;;;13.40;;
83747;SDS011;73737;52.364;17.120;2024-01-15T03:05:25;22.40;;;11.90;;
83747;SDS011;73737;52.364;17.120;2024-01-15T03:07:53;22.40;;;12.80;;
83747;SDS011;73737;52.364;17.120;2024-01-15T03:10:21;23.70;;;12.80;;
83747;SDS011;73737;52.364;17.120;2024-01-15T03:12:50;21.90;;;11.80;;
83747;SDS011;73737;52.364;17.120;2024-01-15T03:15:18;22.10;;;12.10;;
83747;SDS011;73737;52.364;17.120;2024-01-15T03:17:47;20.60;;;11.70;;
83747;SDS011;73737;52.364;17.120;2024-01-15T03:20:15;23.10;;;11.80;;
83747;SDS011;73737;52.364;17.120;2024-01-15T03:22:43;23.10;;;12.20;;
83747;SDS011;73737;52.364;17.120;2024-01-15T03:25:12;21.90;;;12.10;;
83747;SDS011;73737;52.364;17.120;2024-01-15T03:27:40;22.40;;;13.90;;
83747;SDS011;73737;52.364;17.120;2024-01-15T03:30:08;24.30;;;13.10;;
83747;SDS011;73737;52.364;17.120;2024-01-15T03:32:37;23.10;;;12.10;;
83747;SDS011;73737;52.364;17.120;2024-01-15T03:35:05;25.70;;;13.20;;
83747;SDS011;73737;52.364;17.120;2024-01-15T03:37:34;25.30;;;13.10;;
83747;SDS011;73737;52.364;17.120;2024-01-15T03:40:04;25.30;;;13.60;;
83747;SDS011;73737;52.364;17.120;2024-01-15T03:42:32;23.60;;;13.40;;
83747;SDS011;73737;52.364;17.120;2024-01-15T03:45:01;28.30;;;12.20;;
83747;SDS011;73737;52.364;17.120;2024-01-15T03:47:29;25.60;;;12.60;;
83747;SDS011;73737;52.364;17.120;2024-01-15T03:49:58;27.30;;;13.40;;
83747;SDS011;73737;52.364;17.120;2024-01-15T03:52:26;27.40;;;13.90;;
83747;SDS011;73737;52.364;17.120;2024-01-15T03:54:54;21.00;;;12.30;;
83747;SDS011;73737;52.364;17.120;2024-01-15T03:57:23;22.10;;;11.40;;
83747;SDS011;73737;52.364;17.120;2024-01-15T03:59:51;24.50;;;11.50;;
83747;SDS011;73737;52.364;17.120;2024-01-15T04:02:19;27.00;;;13.30;;
83747;SDS011;73737;52.364;17.120;2024-01-15T04:04:48;26.00;;;12.20;;
83747;SDS011;73737;52.364;17.120;2024-01-15T04:07:16;25.30;;;12.40;;
83747;SDS011;73737;52.364;17.120;2024-01-15T04:09:44;23.20;;;12.70;;
83747;SDS011;73737;52.364;17.120;2024-01-15T04:12:13;25.10;;;12.40;;
83747;SDS011;73737;52.364;17.120;2024-01-15T04:14:41;24.90;;;13.20;;
83747;SDS011;73737;52.364;17.120;2024-01-15T04:17:09;25.00;;;13.70;;
83747;SDS011;73737;52.364;17.120;2024-01-15T04:19:38;28.70;;;13.80;;
83747;SDS011;73737;52.364;17.120;2024-01-15T04:22:06;21.80;;;12.50;;
83747;SDS011;73737;52.364;17.120;2024-01-15T04:24:34;21.30;;;12.00;;
83747;SDS011;73737;52.364;17.120;2024-01-15T04:27:03;20.90;;;12.20;;
83747;SDS011;73737;52.364;17.120;2024-01-15T04:29:31;23.90;;;12.80;;
83747;SDS011;73737;52.364;17.120;2024-01-15T04:31:59;24.70;;;12.80;;
83747;SDS011;73737;52.364;17.120;2024-01-15T04:34:28;22.50;;;13.80;;
83747;SDS011;73737;52.364;17.120;2024-01-15T04:36:56;23.60;;;13.20;;
83747;SDS011;73737;52.364;17.120;2024-01-15T04:39:24;21.70;;;13.00;;
83747;SDS011;73737;52.364;17.120;2024-01-15T04:41:53;23.50;;;12.70;;
83747;SDS011;73737;52.364;17.120;2024-01-15T04:44:21;20.20;;;11.50;;
83747;SDS011;73737;52.364;17.120;2024-01-15T04:46:49;19.80;;;12.50;;
83747;SDS011;73737;52.364;17.120;2024-01-15T04:49:17;17.40;;;10.70;;
83747;SDS011;73737;52.364;17.120;2024-01-15T04:51:46;18.20;;;10.90;;
83747;SDS011;73737;52.364;17.120;2024-01-15T04:54:14;18.10;;;10.50;;
83747;SDS011;73737;52.364;17.120;2024-01-15T04:56:46;19.00;;;10.70;;
83747;SDS011;73737;52.364;17.120;2024-01-15T04:59:14;14.60;;;9.80;;
83747;SDS011;73737;52.364;17.120;2024-01-15T05:01:42;19.60;;;10.10;;
83747;SDS011;73737;52.364;17.120;2024-01-15T05:04:11;15.90;;;9.90;;
83747;SDS011;73737;52.364;17.120;2024-01-15T05:06:39;18.00;;;10.70;;
83747;SDS011;73737;52.364;17.120;2024-01-15T05:09:07;19.00;;;11.40;;
83747;SDS011;73737;52.364;17.120;2024-01-15T05:11:36;16.70;;;10.10;;
83747;SDS011;73737;52.364;17.120;2024-01-15T05:14:04;14.60;;;9.00;;
83747;SDS011;73737;52.364;17.120;2024-01-15T05:16:32;15.80;;;9.70;;
83747;SDS011;73737;52.364;17.120;2024-01-15T05:19:01;16.00;;;10.00;;
83747;SDS011;73737;52.364;17.120;2024-01-15T05:21:30;16.30;;;9.50;;
83747;SDS011;73737;52.364;17.120;2024-01-15T05:23:58;15.10;;;9.50;;
83747;SDS011;73737;52.364;17.120;2024-01-15T05:26:27;15.90;;;10.30;;
83747;SDS011;73737;52.364;17.120;2024-01-15T05:28:56;19.80;;;11.40;;
83747;SDS011;73737;52.364;17.120;2024-01-15T05:31:24;17.60;;;10.20;;
83747;SDS011;73737;52.364;17.120;2024-01-15T05:33:53;19.30;;;11.40;;
83747;SDS011;73737;52.364;17.120;2024-01-15T05:36:21;19.80;;;10.80;;
83747;SDS011;73737;52.364;17.120;2024-01-15T05:38:49;21.40;;;12.20;;
83747;SDS011;73737;52.364;17.120;2024-01-15T05:41:18;23.10;;;12.90;;
83747;SDS011;73737;52.364;17.120;2024-01-15T05:43:46;21.80;;;12.20;;
83747;SDS011;73737;52.364;17.120;2024-01-15T05:46:15;22.80;;;13.20;;
83747;SDS011;73737;52.364;17.120;2024-01-15T05:48:44;20.20;;;11.60;;
83747;SDS011;73737;52.364;17.120;2024-01-15T05:51:12;19.30;;;10.40;;
83747;SDS011;73737;52.364;17.120;2024-01-15T05:53:40;19.40;;;10.30;;
83747;SDS011;73737;52.364;17.120;2024-01-15T05:56:11;15.00;;;9.60;;
83747;SDS011;73737;52.364;17.120;2024-01-15T05:58:39;14.80;;;9.10;;
83747;SDS011;73737;52.364;17.120;2024-01-15T06:01:08;15.40;;;8.50;;
83747;SDS011;73737;52.364;17.120;2024-01-15T06:03:36;17.80;;;9.50;;
83747;SDS011;73737;52.364;17.120;2024-01-15T06:06:05;16.40;;;9.20;;
83747;SDS011;73737;52.364;17.120;2024-01-15T06:08:33;13.50;;;8.60;;
83747;SDS011;73737;52.364;17.120;2024-01-15T06:11:02;13.80;;;7.90;;
83747;SDS011;73737;52.364;17.120;2024-01-15T06:13:31;12.90;;;7.70;;
83747;SDS011;73737;52.364;17.120;2024-01-15T06:15:59;14.00;;;8.30;;
83747;SDS011;73737;52.364;17.120;2024-01-15T06:18:27;15.60;;;8.30;;
83747;SDS011;73737;52.364;17.120;2024-01-15T06:20:56;13.70;;;7.70;;
83747;SDS011;73737;52.364;17.120;2024-01-15T06:23:24;12.50;;;7.70;;
83747;SDS011;73737;52.364;17.120;2024-01-15T06:25:54;14.10;;;7.70;;
83747;SDS011;73737;52.364;17.120;2024-01-15T06:28:23;16.80;;;7.60;;
83747;SDS011;73737;52.364;17.120;2024-01-15T06:30:52;12.60;;;7.10;;
83747;SDS011;73737;52.364;17.120;2024-01-15T06:33:20;13.90;;;8.10;;
83747;SDS011;73737;52.364;17.120;2024-01-15T06:35:48;12.40;;;6.80;;
83747;SDS011;73737;52.364;17.120;2024-01-15T06:38:17;11.80;;;7.00;;
83747;SDS011;73737;52.364;17.120;2024-01-15T06:40:45;13.10;;;7.20;;
83747;SDS011;73737;52.364;17.120;2024-01-15T06:43:16;12.20;;;7.00;;
83747;SDS011;73737;52.364;17.120;2024-01-15T06:45:44;13.20;;;7.30;;
83747;SDS011;73737;52.364;17.120;2024-01-15T06:48:12;11.10;;;6.60;;
83747;SDS011;73737;52.364;17.120;2024-01-15T06:50:44;13.00;;;7.20;;
83747;SDS011;73737;52.364;17.120;2024-01-15T06:53:13;12.80;;;7.60;;
83747;SDS011;73737;52.364;17.120;2024-01-15T06:55:41;13.70;;;7.50;;
83747;SDS011;73737;52.364;17.120;2024-01-15T06:58:09;11.70;;;7.10;;
83747;SDS011;73737;52.364;17.120;2024-01-15T07:00:38;13.10;;;7.30;;
83747;SDS011;73737;52.364;17.120;2024-01-15T07:03:06;12.10;;;6.50;;
83747;SDS011;73737;52.364;17.120;2024-01-15T07:05:35;13.20;;;8.10;;
83747;SDS011;73737;52.364;17.120;2024-01-15T07:08:05;13.30;;;8.10;;
83747;SDS011;73737;52.364;17.120;2024-01-15T07:10:33;15.10;;;8.30;;
83747;SDS011;73737;52.364;17.120;2024-01-15T07:13:02;11.10;;;6.90;;
83747;SDS011;73737;52.364;17.120;2024-01-15T07:15:30;12.70;;;8.70;;
83747;SDS011;73737;52.364;17.120;2024-01-15T07:17:58;14.60;;;7.70;;
83747;SDS011;73737;52.364;17.120;2024-01-15T07:20:27;13.10;;;7.70;;
83747;SDS011;73737;52.364;17.120;2024-01-15T07:22:55;14.00;;;7.50;;
83747;SDS011;73737;52.364;17.120;2024-01-15T07:25:24;13.40;;;7.90;;
83747;SDS011;73737;52.364;17.120;2024-01-15T07:27:54;12.70;;;7.70;;
83747;SDS011;73737;52.364;17.120;2024-01-15T07:34:36;12.80;;;7.20;;
83747;SDS011;73737;52.364;17.120;2024-01-15T07:37:05;14.30;;;7.80;;
83747;SDS011;73737;52.364;17.120;2024-01-15T07:39:33;13.00;;;7.80;;
83747;SDS011;73737;52.364;17.120;2024-01-15T07:42:02;12.20;;;6.60;;
83747;SDS011;73737;52.364;17.120;2024-01-15T07:44:31;11.80;;;7.20;;
83747;SDS011;73737;52.364;17.120;2024-01-15T07:46:59;11.90;;;7.20;;
83747;SDS011;73737;52.364;17.120;2024-01-15T07:49:28;13.30;;;7.10;;
83747;SDS011;73737;52.364;17.120;2024-01-15T07:51:56;13.40;;;7.70;;
83747;SDS011;73737;52.364;17.120;2024-01-15T07:54:24;12.80;;;7.60;;
83747;SDS011;73737;52.364;17.120;2024-01-15T07:56:56;14.10;;;7.90;;
83747;SDS011;73737;52.364;17.120;2024-01-15T07:59:28;14.30;;;7.00;;
83747;SDS011;73737;52.364;17.120;2024-01-15T08:01:58;11.30;;;6.50;;
83747;SDS011;73737;52.364;17.120;2024-01-15T08:04:27;12.50;;;6.80;;
83747;SDS011;73737;52.364;17.120;2024-01-15T08:06:56;13.30;;;6.60;;
83747;SDS011;73737;52.364;17.120;2024-01-15T08:09:25;14.30;;;8.60;;
83747;SDS011;73737;52.364;17.120;2024-01-15T08:11:53;11.80;;;7.50;;
83747;SDS011;73737;52.364;17.120;2024-01-15T08:14:21;12.90;;;6.60;;
83747;SDS011;73737;52.364;17.120;2024-01-15T08:16:50;12.80;;;7.30;;
83747;SDS011;73737;52.364;17.120;2024-01-15T08:19:19;12.20;;;6.80;;
83747;SDS011;73737;52.364;17.120;2024-01-15T08:21:50;10.20;;;6.50;;
83747;SDS011;73737;52.364;17.120;2024-01-15T08:24:18;15.30;;;8.30;;
83747;SDS011;73737;52.364;17.120;2024-01-15T08:26:46;12.40;;;7.70;;
83747;SDS011;73737;52.364;17.120;2024-01-15T08:29:15;14.20;;;7.30;;
83747;SDS011;73737;52.364;17.120;2024-01-15T08:31:44;12.40;;;7.10;;
83747;SDS011;73737;52.364;17.120;2024-01-15T08:34:12;14.30;;;6.80;;
83747;SDS011;73737;52.364;17.120;2024-01-15T08:36:41;14.20;;;6.90;;
83747;SDS011;73737;52.364;17.120;2024-01-15T08:39:09;10.80;;;6.50;;
83747;SDS011;73737;52.364;17.120;2024-01-15T08:41:38;13.10;;;6.50;;
83747;SDS011;73737;52.364;17.120;2024-01-15T08:44:06;13.20;;;7.30;;
83747;SDS011;73737;52.364;17.120;2024-01-15T08:46:35;13.60;;;6.70;;
83747;SDS011;73737;52.364;17.120;2024-01-15T08:49:04;13.80;;;6.80;;
83747;SDS011;73737;52.364;17.120;2024-01-15T08:51:33;13.30;;;7.30;;
83747;SDS011;73737;52.364;17.120;2024-01-15T08:54:01;16.60;;;7.60;;
83747;SDS011;73737;52.364;17.120;2024-01-15T08:56:35;12.40;;;6.50;;
83747;SDS011;73737;52.364;17.120;2024-01-15T08:59:03;12.30;;;6.40;;
83747;SDS011;73737;52.364;17.120;2024-01-15T09:01:35;14.00;;;8.00;;
83747;SDS011;73737;52.364;17.120;2024-01-15T09:04:03;11.80;;;6.50;;
83747;SDS011;73737;52.364;17.120;2024-01-15T09:06:32;13.80;;;6.20;;
83747;SDS011;73737;52.364;17.120;2024-01-15T09:09:01;10.50;;;6.60;;
83747;SDS011;73737;52.364;17.120;2024-01-15T09:11:30;16.20;;;7.30;;
83747;SDS011;73737;52.364;17.120;2024-01-15T09:14:00;13.50;;;7.10;;
83747;SDS011;73737;52.364;17.120;2024-01-15T09:16:28;11.10;;;6.80;;
83747;SDS011;73737;52.364;17.120;2024-01-15T09:18:59;11.80;;;6.20;;
83747;SDS011;73737;52.364;17.120;2024-01-15T09:21:27;13.10;;;7.10;;
83747;SDS011;73737;52.364;17.120;2024-01-15T09:23:56;12.00;;;6.60;;
83747;SDS011;73737;52.364;17.120;2024-01-15T09:26:24;13.60;;;6.00;;
83747;SDS011;73737;52.364;17.120;2024-01-15T09:28:55;14.80;;;7.30;;
83747;SDS011;73737;52.364;17.120;2024-01-15T09:31:24;12.10;;;6.60;;
83747;SDS011;73737;52.364;17.120;2024-01-15T09:33:53;13.30;;;6.00;;
83747;SDS011;73737;52.364;17.120;2024-01-15T09:36:24;12.00;;;6.10;;
83747;SDS011;73737;52.364;17.120;2024-01-15T09:38:55;12.50;;;7.10;;
83747;SDS011;73737;52.364;17.120;2024-01-15T09:41:25;11.80;;;6.30;;
83747;SDS011;73737;52.364;17.120;2024-01-15T09:43:54;16.10;;;6.90;;
83747;SDS011;73737;52.364;17.120;2024-01-15T09:46:26;14.70;;;7.00;;
83747;SDS011;73737;52.364;17.120;2024-01-15T09:48:55;14.10;;;6.80;;
83747;SDS011;73737;52.364;17.120;2024-01-15T09:51:24;14.00;;;7.40;;
83747;SDS011;73737;52.364;17.120;2024-01-15T09:53:53;12.90;;;6.60;;
83747;SDS011;73737;52.364;17.120;2024-01-15T09:56:23;11.50;;;6.20;;
83747;SDS011;73737;52.364;17.120;2024-01-15T09:58:53;13.10;;;6.80;;
83747;SDS011;73737;52.364;17.120;2024-01-15T10:01:21;13.30;;;6.30;;
83747;SDS011;73737;52.364;17.120;2024-01-15T10:03:50;12.30;;;6.20;;
83747;SDS011;73737;52.364;17.120;2024-01-15T10:06:19;13.70;;;6.90;;
83747;SDS011;73737;52.364;17.120;2024-01-15T10:08:50;15.40;;;7.40;;
83747;SDS011;73737;52.364;17.120;2024-01-15T10:11:19;11.10;;;6.30;;
83747;SDS011;73737;52.364;17.120;2024-01-15T10:13:47;10.40;;;6.20;;
83747;SDS011;73737;52.364;17.120;2024-01-15T10:16:21;14.10;;;6.00;;
83747;SDS011;73737;52.364;17.120;2024-01-15T10:18:50;9.30;;;6.10;;
83747;SDS011;73737;52.364;17.120;2024-01-15T10:21:19;10.60;;;5.70;;
83747;SDS011;73737;52.364;17.120;2024-01-15T10:23:47;11.10;;;7.00;;
83747;SDS011;73737;52.364;17.120;2024-01-15T10:26:16;8.10;;;5.60;;
83747;SDS011;73737;52.364;17.120;2024-01-15T10:28:45;12.30;;;6.30;;
83747;SDS011;73737;52.364;17.120;2024-01-15T10:31:13;10.20;;;5.90;;
83747;SDS011;73737;52.364;17.120;2024-01-15T10:33:42;11.90;;;6.10;;
83747;SDS011;73737;52.364;17.120;2024-01-15T10:36:11;10.50;;;6.30;;
83747;SDS011;73737;52.364;17.120;2024-01-15T10:38:39;11.50;;;5.70;;
83747;SDS011;73737;52.364;17.120;2024-01-15T10:41:09;7.80;;;4.90;;
83747;SDS011;73737;52.364;17.120;2024-01-15T10:43:39;7.90;;;5.40;;
83747;SDS011;73737;52.364;17.120;2024-01-15T10:46:09;10.70;;;5.30;;
83747;SDS011;73737;52.364;17.120;2024-01-15T10:48:38;9.60;;;5.40;;
83747;SDS011;73737;52.364;17.120;2024-01-15T10:51:07;12.80;;;5.10;;
83747;SDS011;73737;52.364;17.120;2024-01-15T10:53:38;10.20;;;5.60;;
83747;SDS011;73737;52.364;17.120;2024-01-15T10:56:09;8.20;;;4.90;;
83747;SDS011;73737;52.364;17.120;2024-01-15T10:58:39;11.30;;;5.20;;
83747;SDS011;73737;52.364;17.120;2024-01-15T11:01:07;10.50;;;5.60;;
83747;SDS011;73737;52.364;17.120;2024-01-15T11:03:43;11.30;;;5.50;;
83747;SDS011;73737;52.364;17.120;2024-01-15T11:07:07;8.20;;;5.60;;
83747;SDS011;73737;52.364;17.120;2024-01-15T11:09:36;11.40;;;4.90;;
83747;SDS011;73737;52.364;17.120;2024-01-15T11:12:09;10.80;;;5.50;;
83747;SDS011;73737;52.364;17.120;2024-01-15T11:14:40;9.70;;;4.70;;
83747;SDS011;73737;52.364;17.120;2024-01-15T11:17:13;13.60;;;5.40;;
83747;SDS011;73737;52.364;17.120;2024-01-15T11:19:42;8.20;;;4.60;;
83747;SDS011;73737;52.364;17.120;2024-01-15T11:25:02;8.20;;;4.10;;
83747;SDS011;73737;52.364;17.120;2024-01-15T11:27:41;11.30;;;4.80;;
83747;SDS011;73737;52.364;17.120;2024-01-15T11:30:11;9.30;;;4.20;;
83747;SDS011;73737;52.364;17.120;2024-01-15T11:32:40;8.60;;;4.30;;
83747;SDS011;73737;52.364;17.120;2024-01-15T11:35:09;8.80;;;4.60;;
83747;SDS011;73737;52.364;17.120;2024-01-15T11:40:35;8.00;;;3.80;;
83747;SDS011;73737;52.364;17.120;2024-01-15T11:43:06;8.80;;;4.10;;
83747;SDS011;73737;52.364;17.120;2024-01-15T11:45:37;9.90;;;3.90;;
83747;SDS011;73737;52.364;17.120;2024-01-15T11:50:43;9.50;;;3.40;;
83747;SDS011;73737;52.364;17.120;2024-01-15T11:53:18;7.80;;;4.10;;
83747;SDS011;73737;52.364;17.120;2024-01-15T11:55:49;10.40;;;4.60;;
83747;SDS011;73737;52.364;17.120;2024-01-15T11:58:20;9.00;;;3.50;;
83747;SDS011;73737;52.364;17.120;2024-01-15T12:00:49;9.60;;;4.50;;
83747;SDS011;73737;52.364;17.120;2024-01-15T12:03:22;11.00;;;4.00;;
83747;SDS011;73737;52.364;17.120;2024-01-15T12:05:52;9.00;;;4.10;;
83747;SDS011;73737;52.364;17.120;2024-01-15T12:08:21;9.50;;;4.00;;
83747;SDS011;73737;52.364;17.120;2024-01-15T12:10:53;8.20;;;3.70;;
83747;SDS011;73737;52.364;17.120;2024-01-15T12:13:22;10.30;;;4.20;;
83747;SDS011;73737;52.364;17.120;2024-01-15T12:15:50;6.40;;;3.80;;
83747;SDS011;73737;52.364;17.120;2024-01-15T12:18:19;9.50;;;4.90;;
83747;SDS011;73737;52.364;17.120;2024-01-15T12:20:47;9.70;;;4.40;;
83747;SDS011;73737;52.364;17.120;2024-01-15T12:23:16;10.50;;;3.60;;
83747;SDS011;73737;52.364;17.120;2024-01-15T12:25:45;9.90;;;5.10;;
83747;SDS011;73737;52.364;17.120;2024-01-15T12:28:14;10.20;;;5.20;;
83747;SDS011;73737;52.364;17.120;2024-01-15T12:30:45;11.80;;;4.90;;
83747;SDS011;73737;52.364;17.120;2024-01-15T12:33:17;7.60;;;4.00;;
83747;SDS011;73737;52.364;17.120;2024-01-15T12:35:47;6.30;;;3.70;;
83747;SDS011;73737;52.364;17.120;2024-01-15T12:38:18;9.50;;;4.60;;
83747;SDS011;73737;52.364;17.120;2024-01-15T12:40:48;7.90;;;4.40;;
83747;SDS011;73737;52.364;17.120;2024-01-15T12:43:17;7.80;;;3.20;;
83747;SDS011;73737;52.364;17.120;2024-01-15T12:45:46;7.90;;;3.50;;
83747;SDS011;73737;52.364;17.120;2024-01-15T12:48:15;6.50;;;4.10;;
83747;SDS011;73737;52.364;17.120;2024-01-15T12:50:45;8.90;;;3.70;;
83747;SDS011;73737;52.364;17.120;2024-01-15T12:53:15;9.20;;;3.80;;
83747;SDS011;73737;52.364;17.120;2024-01-15T12:55:46;5.60;;;3.20;;
83747;SDS011;73737;52.364;17.120;2024-01-15T12:58:14;7.90;;;4.10;;
83747;SDS011;73737;52.364;17.120;2024-01-15T13:00:43;9.10;;;4.20;;
83747;SDS011;73737;52.364;17.120;2024-01-15T13:03:12;8.50;;;3.60;;
83747;SDS011;73737;52.364;17.120;2024-01-15T13:05:42;7.70;;;3.70;;
83747;SDS011;73737;52.364;17.120;2024-01-15T13:08:11;10.10;;;3.80;;
83747;SDS011;73737;52.364;17.120;2024-01-15T13:10:43;7.70;;;3.30;;
83747;SDS011;73737;52.364;17.120;2024-01-15T13:13:12;7.00;;;4.30;;
83747;SDS011;73737;52.364;17.120;2024-01-15T13:15:46;8.40;;;3.80;;
83747;SDS011;73737;52.364;17.120;2024-01-15T13:18:15;6.50;;;3.60;;
83747;SDS011;73737;52.364;17.120;2024-01-15T13:20:45;10.00;;;4.30;;
83747;SDS011;73737;52.364;17.120;2024-01-15T13:23:19;6.70;;;4.00;;
83747;SDS011;73737;52.364;17.120;2024-01-15T13:25:48;10.20;;;4.30;;
83747;SDS011;73737;52.364;17.120;2024-01-15T13:28:20;8.30;;;3.70;;
83747;SDS011;73737;52.364;17.120;2024-01-15T13:30:53;7.20;;;4.00;;
83747;SDS011;73737;52.364;17.120;2024-01-15T13:33:26;8.30;;;4.30;;
83747;SDS011;73737;52.364;17.120;2024-01-15T13:35:57;9.80;;;4.30;;
83747;SDS011;73737;52.364;17.120;2024-01-15T13:38:27;9.60;;;4.30;;
83747;SDS011;73737;52.364;17.120;2024-01-15T13:41:04;9.00;;;4.90;;
83747;SDS011;73737;52.364;17.120;2024-01-15T13:43:34;9.80;;;4.90;;
83747;SDS011;73737;52.364;17.120;2024-01-15T13:46:05;9.20;;;4.80;;
83747;SDS011;73737;52.364;17.120;2024-01-15T13:48:37;8.70;;;4.30;;
83747;SDS011;73737;52.364;17.120;2024-01-15T13:51:06;6.50;;;4.20;;
83747;SDS011;73737;52.364;17.120;2024-01-15T13:53:35;8.30;;;4.00;;
83747;SDS011;73737;52.364;17.120;2024-01-15T13:56:08;8.20;;;5.00;;
83747;SDS011;73737;52.364;17.120;2024-01-15T13:58:42;6.90;;;3.30;;
83747;SDS011;73737;52.364;17.120;2024-01-15T14:01:11;6.50;;;3.30;;
83747;SDS011;73737;52.364;17.120;2024-01-15T14:03:41;7.70;;;3.60;;
83747;SDS011;73737;52.364;17.120;2024-01-15T14:06:11;6.60;;;3.30;;
83747;SDS011;73737;52.364;17.120;2024-01-15T14:08:40;6.40;;;3.00;;
83747;SDS011;73737;52.364;17.120;2024-01-15T14:11:09;7.30;;;3.70;;
83747;SDS011;73737;52.364;17.120;2024-01-15T14:13:38;7.20;;;3.70;;
83747;SDS011;73737;52.364;17.120;2024-01-15T14:16:07;9.40;;;3.50;;
83747;SDS011;73737;52.364;17.120;2024-01-15T14:18:35;10.30;;;3.50;;
83747;SDS011;73737;52.364;17.120;2024-01-15T14:21:04;5.30;;;3.60;;
83747;SDS011;73737;52.364;17.120;2024-01-15T14:23:33;6.80;;;3.40;;
83747;SDS011;73737;52.364;17.120;2024-01-15T14:26:02;6.90;;;3.90;;
83747;SDS011;73737;52.364;17.120;2024-01-15T14:28:33;5.30;;;3.30;;
83747;SDS011;73737;52.364;17.120;2024-01-15T14:31:01;5.60;;;3.80;;
83747;SDS011;73737;52.364;17.120;2024-01-15T14:33:31;7.20;;;3.60;;
83747;SDS011;73737;52.364;17.120;2024-01-15T14:36:00;6.20;;;3.90;;
83747;SDS011;73737;52.364;17.120;2024-01-15T14:38:28;7.20;;;3.90;;
83747;SDS011;73737;52.364;17.120;2024-01-15T14:40:57;7.60;;;3.10;;
83747;SDS011;73737;52.364;17.120;2024-01-15T14:43:26;8.00;;;4.00;;
83747;SDS011;73737;52.364;17.120;2024-01-15T14:45:55;5.60;;;3.30;;